sensor_id;sensor_type;location;lat;lon;timestamp;P1;durP1;ratioP1;P2;durP2;ratioP2
10244;SDS011;5167;52.164;10.530;2024-03-23T00:55:10;12.10;;;4.72;;
10244;SDS011;5167;52.164;10.530;2024-03-23T00:57:36;16.08;;;4.68;;
10244;SDS011;5167;52.164;10.530;2024-03-23T01:00:02;8.60;;;4.70;;
10244;SDS011;5167;52.164;10.530;2024-03-23T01:02:28;14.27;;;4.57;;
10244;SDS011;5167;52.164;10.530;2024-03-23T01:04:53;8.83;;;4.00;;
10244;SDS011;5167;52.164;10.530;2024-03-23T01:07:19;10.88;;;3.92;;
10244;SDS011;5167;52.164;10.530;2024-03-23T01:09:44;9.03;;;3.80;;
10244;SDS011;5167;52.164;10.530;2024-03-23T01:12:10;7.27;;;3.43;;
10244;SDS011;5167;52.164;10.530;2024-03-23T01:14:35;9.13;;;3.83;;
10244;SDS011;5167;52.164;10.530;2024-03-23T01:17:01;8.50;;;3.10;;
10244;SDS011;5167;52.164;10.530;2024-03-23T01:19:26;11.20;;;3.90;;
10244;SDS011;5167;52.164;10.530;2024-03-23T01:21:52;9.50;;;3.20;;
10244;SDS011;5167;52.164;10.530;2024-03-23T01:24:17;11.43;;;3.20;;
10244;SDS011;5167;52.164;10.530;2024-03-23T01:26:43;9.43;;;3.33;;
10244;SDS011;5167;52.164;10.530;2024-03-23T01:29:08;11.73;;;3.60;;
10244;SDS011;5167;52.164;10.530;2024-03-23T01:31:34;13.50;;;3.40;;
10244;SDS011;5167;52.164;10.530;2024-03-23T01:33:59;12.60;;;3.47;;
10244;SDS011;5167;52.164;10.530;2024-03-23T01:36:25;13.87;;;3.50;;
10244;SDS011;5167;52.164;10.530;2024-03-23T01:38:51;12.93;;;3.90;;
10244;SDS011;5167;52.164;10.530;2024-03-23T01:41:17;12.73;;;3.33;;
10244;SDS011;5167;52.164;10.530;2024-03-23T01:43:42;16.63;;;3.73;;
10244;SDS011;5167;52.164;10.530;2024-03-23T01:46:08;9.77;;;2.90;;
10244;SDS011;5167;52.164;10.530;2024-03-23T01:48:33;10.90;;;3.40;;
10244;SDS011;5167;52.164;10.530;2024-03-23T01:50:59;5.93;;;2.93;;
10244;SDS011;5167;52.164;10.530;2024-03-23T01:53:25;13.63;;;3.53;;
10244;SDS011;5167;52.164;10.530;2024-03-23T01:55:50;12.33;;;3.40;;
10244;SDS011;5167;52.164;10.530;2024-03-23T01:58:16;10.47;;;3.60;;
10244;SDS011;5167;52.164;10.530;2024-03-23T02:00:42;13.40;;;3.50;;
10244;SDS011;5167;52.164;10.530;2024-03-23T02:03:41;13.03;;;4.63;;
10244;SDS011;5167;52.164;10.530;2024-03-23T02:05:59;9.83;;;4.70;;
10244;SDS011;5167;52.164;10.530;2024-03-23T02:08:25;16.90;;;5.63;;
10244;SDS011;5167;52.164;10.530;2024-03-23T02:10:50;14.37;;;5.40;;
10244;SDS011;5167;52.164;10.530;2024-03-23T02:13:17;16.23;;;6.30;;
10244;SDS011;5167;52.164;10.530;2024-03-23T02:15:43;24.03;;;9.10;;
10244;SDS011;5167;52.164;10.530;2024-03-23T02:18:09;19.20;;;7.37;;
10244;SDS011;5167;52.164;10.530;2024-03-23T02:20:35;12.33;;;4.10;;
10244;SDS011;5167;52.164;10.530;2024-03-23T02:23:01;14.93;;;4.57;;
10244;SDS011;5167;52.164;10.530;2024-03-23T02:25:27;11.37;;;3.73;;
10244;SDS011;5167;52.164;10.530;2024-03-23T02:27:53;14.30;;;3.60;;
10244;SDS011;5167;52.164;10.530;2024-03-23T02:30:20;8.07;;;3.67;;
10244;SDS011;5167;52.164;10.530;2024-03-23T02:32:45;10.10;;;2.90;;
10244;SDS011;5167;52.164;10.530;2024-03-23T02:35:11;6.93;;;3.40;;
10244;SDS011;5167;52.164;10.530;2024-03-23T02:37:36;12.17;;;3.80;;
10244;SDS011;5167;52.164;10.530;2024-03-23T02:40:02;6.93;;;3.23;;
10244;SDS011;5167;52.164;10.530;2024-03-23T02:42:28;16.53;;;3.23;;
10244;SDS011;5167;52.164;10.530;2024-03-23T02:44:53;7.83;;;3.07;;
10244;SDS011;5167;52.164;10.530;2024-03-23T02:47:19;6.50;;;3.27;;
10244;SDS011;5167;52.164;10.530;2024-03-23T02:49:44;7.47;;;2.97;;
10244;SDS011;5167;52.164;10.530;2024-03-23T02:52:10;9.87;;;3.20;;
10244;SDS011;5167;52.164;10.530;2024-03-23T02:54:35;8.30;;;3.43;;
10244;SDS011;5167;52.164;10.530;2024-03-23T02:57:01;8.17;;;3.90;;
10244;SDS011;5167;52.164;10.530;2024-03-23T02:59:27;6.40;;;3.27;;
10244;SDS011;5167;52.164;10.530;2024-03-23T03:01:52;6.37;;;3.00;;
10244;SDS011;5167;52.164;10.530;2024-03-23T03:04:18;9.40;;;3.90;;
10244;SDS011;5167;52.164;10.530;2024-03-23T03:06:46;7.83;;;3.37;;
10244;SDS011;5167;52.164;10.530;2024-03-23T03:09:12;9.10;;;3.60;;
10244;SDS011;5167;52.164;10.530;2024-03-23T03:11:37;14.67;;;4.00;;
10244;SDS011;5167;52.164;10.530;2024-03-23T03:14:03;9.90;;;4.07;;
10244;SDS011;5167;52.164;10.530;2024-03-23T03:16:28;7.77;;;4.00;;
10244;SDS011;5167;52.164;10.530;2024-03-23T03:18:54;9.33;;;3.73;;
10244;SDS011;5167;52.164;10.530;2024-03-23T03:21:19;8.17;;;4.10;;
10244;SDS011;5167;52.164;10.530;2024-03-23T03:23:45;11.47;;;4.20;;
10244;SDS011;5167;52.164;10.530;2024-03-23T03:26:10;7.27;;;3.90;;
10244;SDS011;5167;52.164;10.530;2024-03-23T03:28:36;11.37;;;4.70;;
10244;SDS011;5167;52.164;10.530;2024-03-23T03:31:01;13.43;;;5.60;;
10244;SDS011;5167;52.164;10.530;2024-03-23T03:33:27;9.40;;;4.60;;
10244;SDS011;5167;52.164;10.530;2024-03-23T03:35:53;7.77;;;4.63;;
10244;SDS011;5167;52.164;10.530;2024-03-23T03:38:19;15.30;;;5.17;;
10244;SDS011;5167;52.164;10.530;2024-03-23T03:40:44;10.73;;;4.90;;
10244;SDS011;5167;52.164;10.530;2024-03-23T03:43:10;9.63;;;4.53;;
10244;SDS011;5167;52.164;10.530;2024-03-23T03:45:36;7.23;;;4.30;;
10244;SDS011;5167;52.164;10.530;2024-03-23T03:48:01;12.43;;;4.97;;
10244;SDS011;5167;52.164;10.530;2024-03-23T03:50:27;9.67;;;4.23;;
10244;SDS011;5167;52.164;10.530;2024-03-23T03:52:52;6.43;;;4.20;;
10244;SDS011;5167;52.164;10.530;2024-03-23T03:55:18;11.47;;;3.83;;
10244;SDS011;5167;52.164;10.530;2024-03-23T03:57:43;15.80;;;4.83;;
10244;SDS011;5167;52.164;10.530;2024-03-23T04:00:09;11.47;;;3.77;;
10244;SDS011;5167;52.164;10.530;2024-03-23T04:02:36;10.17;;;3.63;;
10244;SDS011;5167;52.164;10.530;2024-03-23T04:05:02;11.83;;;3.70;;
10244;SDS011;5167;52.164;10.530;2024-03-23T04:07:28;7.13;;;3.20;;
10244;SDS011;5167;52.164;10.530;2024-03-23T04:09:53;10.10;;;3.80;;
10244;SDS011;5167;52.164;10.530;2024-03-23T04:12:19;10.67;;;3.50;;
10244;SDS011;5167;52.164;10.530;2024-03-23T04:14:45;11.87;;;4.50;;
10244;SDS011;5167;52.164;10.530;2024-03-23T04:17:10;14.07;;;3.80;;
10244;SDS011;5167;52.164;10.530;2024-03-23T04:19:36;10.87;;;3.77;;
10244;SDS011;5167;52.164;10.530;2024-03-23T04:22:02;9.17;;;3.23;;
10244;SDS011;5167;52.164;10.530;2024-03-23T04:24:28;11.00;;;3.40;;
10244;SDS011;5167;52.164;10.530;2024-03-23T04:26:54;7.13;;;3.73;;
10244;SDS011;5167;52.164;10.530;2024-03-23T04:29:19;12.47;;;4.17;;
10244;SDS011;5167;52.164;10.530;2024-03-23T04:31:45;4.80;;;3.00;;
10244;SDS011;5167;52.164;10.530;2024-03-23T04:34:10;13.10;;;3.93;;
10244;SDS011;5167;52.164;10.530;2024-03-23T04:36:36;8.17;;;3.20;;
10244;SDS011;5167;52.164;10.530;2024-03-23T04:39:02;9.27;;;3.80;;
10244;SDS011;5167;52.164;10.530;2024-03-23T04:41:27;13.03;;;3.10;;
10244;SDS011;5167;52.164;10.530;2024-03-23T04:43:53;11.50;;;2.70;;
10244;SDS011;5167;52.164;10.530;2024-03-23T04:46:18;12.80;;;2.77;;
10244;SDS011;5167;52.164;10.530;2024-03-23T04:48:45;6.33;;;2.00;;
10244;SDS011;5167;52.164;10.530;2024-03-23T04:51:11;5.03;;;2.77;;
10244;SDS011;5167;52.164;10.530;2024-03-23T04:53:46;9.73;;;2.70;;
10244;SDS011;5167;52.164;10.530;2024-03-23T04:56:12;7.00;;;2.30;;
10244;SDS011;5167;52.164;10.530;2024-03-23T04:58:38;5.27;;;2.40;;
10244;SDS011;5167;52.164;10.530;2024-03-23T05:01:04;7.00;;;2.70;;
10244;SDS011;5167;52.164;10.530;2024-03-23T05:03:29;5.73;;;2.33;;
10244;SDS011;5167;52.164;10.530;2024-03-23T05:05:55;6.10;;;2.50;;
10244;SDS011;5167;52.164;10.530;2024-03-23T05:08:20;8.00;;;2.30;;
10244;SDS011;5167;52.164;10.530;2024-03-23T05:10:46;3.63;;;2.57;;
10244;SDS011;5167;52.164;10.530;2024-03-23T05:13:11;3.97;;;2.23;;
10244;SDS011;5167;52.164;10.530;2024-03-23T05:15:37;7.47;;;2.33;;
10244;SDS011;5167;52.164;10.530;2024-03-23T05:18:02;7.20;;;2.97;;
10244;SDS011;5167;52.164;10.530;2024-03-23T05:20:30;5.27;;;2.57;;
10244;SDS011;5167;52.164;10.530;2024-03-23T05:22:55;8.33;;;3.07;;
10244;SDS011;5167;52.164;10.530;2024-03-23T05:25:21;8.97;;;2.63;;
10244;SDS011;5167;52.164;10.530;2024-03-23T05:27:47;5.37;;;2.80;;
10244;SDS011;5167;52.164;10.530;2024-03-23T05:30:13;8.10;;;2.97;;
10244;SDS011;5167;52.164;10.530;2024-03-23T05:32:39;8.87;;;2.60;;
10244;SDS011;5167;52.164;10.530;2024-03-23T05:35:07;5.83;;;2.50;;
10244;SDS011;5167;52.164;10.530;2024-03-23T05:37:34;3.93;;;2.63;;
10244;SDS011;5167;52.164;10.530;2024-03-23T05:40:00;6.90;;;3.57;;
10244;SDS011;5167;52.164;10.530;2024-03-23T05:42:25;10.57;;;3.40;;
10244;SDS011;5167;52.164;10.530;2024-03-23T05:44:51;9.77;;;3.60;;
10244;SDS011;5167;52.164;10.530;2024-03-23T05:47:17;10.70;;;3.53;;
10244;SDS011;5167;52.164;10.530;2024-03-23T05:49:43;9.93;;;2.90;;
10244;SDS011;5167;52.164;10.530;2024-03-23T05:52:09;9.03;;;2.57;;
10244;SDS011;5167;52.164;10.530;2024-03-23T05:54:35;9.73;;;3.27;;
10244;SDS011;5167;52.164;10.530;2024-03-23T05:57:01;7.63;;;2.73;;
10244;SDS011;5167;52.164;10.530;2024-03-23T05:59:27;6.77;;;2.63;;
10244;SDS011;5167;52.164;10.530;2024-03-23T06:01:52;10.00;;;3.20;;
10244;SDS011;5167;52.164;10.530;2024-03-23T06:04:18;6.50;;;2.50;;
10244;SDS011;5167;52.164;10.530;2024-03-23T06:06:43;8.57;;;3.00;;
10244;SDS011;5167;52.164;10.530;2024-03-23T06:09:09;12.67;;;3.47;;
10244;SDS011;5167;52.164;10.530;2024-03-23T06:11:34;8.10;;;2.90;;
10244;SDS011;5167;52.164;10.530;2024-03-23T06:14:00;3.80;;;3.27;;
10244;SDS011;5167;52.164;10.530;2024-03-23T06:16:25;10.67;;;3.37;;
10244;SDS011;5167;52.164;10.530;2024-03-23T06:18:52;7.70;;;2.63;;
10244;SDS011;5167;52.164;10.530;2024-03-23T06:21:17;10.07;;;2.60;;
10244;SDS011;5167;52.164;10.530;2024-03-23T06:23:44;9.23;;;2.70;;
10244;SDS011;5167;52.164;10.530;2024-03-23T06:26:16;10.33;;;2.73;;
10244;SDS011;5167;52.164;10.530;2024-03-23T06:28:42;9.07;;;3.50;;
10244;SDS011;5167;52.164;10.530;2024-03-23T06:31:11;12.60;;;2.67;;
10244;SDS011;5167;52.164;10.530;2024-03-23T06:33:37;11.53;;;2.93;;
10244;SDS011;5167;52.164;10.530;2024-03-23T06:36:04;7.50;;;2.37;;
10244;SDS011;5167;52.164;10.530;2024-03-23T06:38:30;6.97;;;2.30;;
10244;SDS011;5167;52.164;10.530;2024-03-23T06:40:55;9.47;;;2.50;;
10244;SDS011;5167;52.164;10.530;2024-03-23T06:43:21;10.73;;;2.53;;
10244;SDS011;5167;52.164;10.530;2024-03-23T06:45:53;7.17;;;1.93;;
10244;SDS011;5167;52.164;10.530;2024-03-23T06:48:19;9.27;;;2.10;;
10244;SDS011;5167;52.164;10.530;2024-03-23T06:50:45;8.20;;;2.10;;
10244;SDS011;5167;52.164;10.530;2024-03-23T06:53:14;12.30;;;2.93;;
10244;SDS011;5167;52.164;10.530;2024-03-23T06:55:40;6.47;;;2.00;;
10244;SDS011;5167;52.164;10.530;2024-03-23T06:58:06;8.70;;;2.40;;
10244;SDS011;5167;52.164;10.530;2024-03-23T07:00:31;8.63;;;2.20;;
10244;SDS011;5167;52.164;10.530;2024-03-23T07:02:57;9.53;;;2.27;;
10244;SDS011;5167;52.164;10.530;2024-03-23T07:05:23;9.67;;;2.63;;
10244;SDS011;5167;52.164;10.530;2024-03-23T07:07:49;7.60;;;1.90;;
10244;SDS011;5167;52.164;10.530;2024-03-23T07:10:14;9.27;;;1.87;;
10244;SDS011;5167;52.164;10.530;2024-03-23T07:12:40;5.60;;;1.70;;
10244;SDS011;5167;52.164;10.530;2024-03-23T07:15:06;8.03;;;1.80;;
10244;SDS011;5167;52.164;10.530;2024-03-23T07:17:33;7.43;;;1.60;;
10244;SDS011;5167;52.164;10.530;2024-03-23T07:20:00;4.03;;;1.90;;
10244;SDS011;5167;52.164;10.530;2024-03-23T07:22:28;7.17;;;1.40;;
10244;SDS011;5167;52.164;10.530;2024-03-23T07:24:59;6.80;;;1.30;;
10244;SDS011;5167;52.164;10.530;2024-03-23T07:27:26;6.03;;;1.83;;
10244;SDS011;5167;52.164;10.530;2024-03-23T07:29:51;5.73;;;2.13;;
10244;SDS011;5167;52.164;10.530;2024-03-23T07:32:17;14.10;;;6.63;;
10244;SDS011;5167;52.164;10.530;2024-03-23T07:34:42;6.87;;;2.03;;
10244;SDS011;5167;52.164;10.530;2024-03-23T07:37:09;6.87;;;1.80;;
10244;SDS011;5167;52.164;10.530;2024-03-23T07:39:35;3.23;;;1.57;;
10244;SDS011;5167;52.164;10.530;2024-03-23T07:42:00;5.17;;;1.50;;
10244;SDS011;5167;52.164;10.530;2024-03-23T07:44:26;6.37;;;1.80;;
10244;SDS011;5167;52.164;10.530;2024-03-23T07:46:51;6.53;;;1.50;;
10244;SDS011;5167;52.164;10.530;2024-03-23T07:49:17;5.80;;;1.50;;
10244;SDS011;5167;52.164;10.530;2024-03-23T07:51:43;2.37;;;1.13;;
10244;SDS011;5167;52.164;10.530;2024-03-23T07:54:09;4.27;;;1.80;;
10244;SDS011;5167;52.164;10.530;2024-03-23T07:56:35;6.63;;;3.03;;
10244;SDS011;5167;52.164;10.530;2024-03-23T07:59:00;6.83;;;2.27;;
10244;SDS011;5167;52.164;10.530;2024-03-23T08:01:28;5.23;;;1.67;;
10244;SDS011;5167;52.164;10.530;2024-03-23T08:03:54;7.30;;;2.60;;
10244;SDS011;5167;52.164;10.530;2024-03-23T08:06:19;6.57;;;2.50;;
10244;SDS011;5167;52.164;10.530;2024-03-23T08:08:47;10.20;;;3.80;;
10244;SDS011;5167;52.164;10.530;2024-03-23T08:11:24;10.90;;;3.80;;
10244;SDS011;5167;52.164;10.530;2024-03-23T08:13:50;12.63;;;4.87;;
10244;SDS011;5167;52.164;10.530;2024-03-23T08:16:16;9.40;;;3.43;;
10244;SDS011;5167;52.164;10.530;2024-03-23T08:18:41;10.60;;;4.57;;
10244;SDS011;5167;52.164;10.530;2024-03-23T08:21:07;4.10;;;2.40;;
10244;SDS011;5167;52.164;10.530;2024-03-23T08:23:33;7.57;;;2.73;;
10244;SDS011;5167;52.164;10.530;2024-03-23T08:26:01;9.37;;;2.27;;
10244;SDS011;5167;52.164;10.530;2024-03-23T08:28:31;5.53;;;2.10;;
10244;SDS011;5167;52.164;10.530;2024-03-23T08:31:00;16.13;;;6.00;;
10244;SDS011;5167;52.164;10.530;2024-03-23T08:33:30;10.97;;;4.37;;
10244;SDS011;5167;52.164;10.530;2024-03-23T08:35:56;9.27;;;3.53;;
10244;SDS011;5167;52.164;10.530;2024-03-23T08:38:23;5.50;;;2.20;;
10244;SDS011;5167;52.164;10.530;2024-03-23T08:41:03;9.33;;;3.00;;
10244;SDS011;5167;52.164;10.530;2024-03-23T08:43:30;11.93;;;2.53;;
10244;SDS011;5167;52.164;10.530;2024-03-23T08:46:07;11.53;;;3.00;;
10244;SDS011;5167;52.164;10.530;2024-03-23T08:48:45;6.30;;;2.90;;
10244;SDS011;5167;52.164;10.530;2024-03-23T08:51:14;7.97;;;3.13;;
10244;SDS011;5167;52.164;10.530;2024-03-23T08:53:41;11.27;;;3.07;;
10244;SDS011;5167;52.164;10.530;2024-03-23T08:56:08;11.30;;;2.73;;
10244;SDS011;5167;52.164;10.530;2024-03-23T08:58:34;7.20;;;2.40;;
10244;SDS011;5167;52.164;10.530;2024-03-23T09:03:29;12.17;;;2.57;;
10244;SDS011;5167;52.164;10.530;2024-03-23T09:05:55;8.60;;;2.50;;
10244;SDS011;5167;52.164;10.530;2024-03-23T09:08:21;14.87;;;2.93;;
10244;SDS011;5167;52.164;10.530;2024-03-23T09:10:47;6.93;;;2.40;;
10244;SDS011;5167;52.164;10.530;2024-03-23T09:13:13;10.30;;;2.87;;
10244;SDS011;5167;52.164;10.530;2024-03-23T09:15:45;7.37;;;2.60;;
10244;SDS011;5167;52.164;10.530;2024-03-23T09:18:11;8.77;;;3.53;;
10244;SDS011;5167;52.164;10.530;2024-03-23T09:20:37;10.43;;;2.93;;
10244;SDS011;5167;52.164;10.530;2024-03-23T09:23:02;15.63;;;4.57;;
10244;SDS011;5167;52.164;10.530;2024-03-23T09:25:28;10.53;;;3.10;;
10244;SDS011;5167;52.164;10.530;2024-03-23T09:27:53;8.67;;;3.27;;
10244;SDS011;5167;52.164;10.530;2024-03-23T09:30:19;7.87;;;3.20;;
10244;SDS011;5167;52.164;10.530;2024-03-23T09:32:44;7.90;;;2.60;;
10244;SDS011;5167;52.164;10.530;2024-03-23T09:35:10;11.27;;;3.00;;
10244;SDS011;5167;52.164;10.530;2024-03-23T09:37:36;7.70;;;2.60;;
10244;SDS011;5167;52.164;10.530;2024-03-23T09:40:04;9.40;;;3.30;;
10244;SDS011;5167;52.164;10.530;2024-03-23T09:42:32;10.57;;;3.23;;
10244;SDS011;5167;52.164;10.530;2024-03-23T09:44:58;10.60;;;3.63;;
10244;SDS011;5167;52.164;10.530;2024-03-23T09:47:25;14.33;;;3.43;;
10244;SDS011;5167;52.164;10.530;2024-03-23T09:49:51;26.03;;;12.17;;
10244;SDS011;5167;52.164;10.530;2024-03-23T09:52:17;11.23;;;4.43;;
10244;SDS011;5167;52.164;10.530;2024-03-23T09:54:42;12.07;;;4.23;;
10244;SDS011;5167;52.164;10.530;2024-03-23T09:57:08;11.70;;;3.80;;
10244;SDS011;5167;52.164;10.530;2024-03-23T09:59:34;12.67;;;3.43;;
10244;SDS011;5167;52.164;10.530;2024-03-23T10:02:00;12.13;;;3.83;;
10244;SDS011;5167;52.164;10.530;2024-03-23T10:04:39;11.70;;;4.77;;
10244;SDS011;5167;52.164;10.530;2024-03-23T10:07:12;15.87;;;5.23;;
10244;SDS011;5167;52.164;10.530;2024-03-23T10:09:39;18.77;;;5.60;;
10244;SDS011;5167;52.164;10.530;2024-03-23T10:12:12;14.37;;;4.77;;
10244;SDS011;5167;52.164;10.530;2024-03-23T10:14:41;8.33;;;4.43;;
10244;SDS011;5167;52.164;10.530;2024-03-23T10:17:15;13.67;;;4.57;;
10244;SDS011;5167;52.164;10.530;2024-03-23T10:22:12;17.50;;;6.33;;
10244;SDS011;5167;52.164;10.530;2024-03-23T10:24:39;20.03;;;6.23;;
10244;SDS011;5167;52.164;10.530;2024-03-23T10:27:05;19.03;;;5.57;;
10244;SDS011;5167;52.164;10.530;2024-03-23T10:29:31;17.97;;;4.57;;
10244;SDS011;5167;52.164;10.530;2024-03-23T10:32:12;19.37;;;4.97;;
10244;SDS011;5167;52.164;10.530;2024-03-23T10:34:39;15.07;;;5.03;;
10244;SDS011;5167;52.164;10.530;2024-03-23T10:37:05;21.77;;;5.50;;
10244;SDS011;5167;52.164;10.530;2024-03-23T10:39:32;17.90;;;6.63;;
10244;SDS011;5167;52.164;10.530;2024-03-23T10:42:02;12.63;;;4.28;;
10244;SDS011;5167;52.164;10.530;2024-03-23T10:44:32;14.55;;;5.07;;
10244;SDS011;5167;52.164;10.530;2024-03-23T10:46:58;13.95;;;5.05;;
10244;SDS011;5167;52.164;10.530;2024-03-23T10:49:26;13.13;;;4.40;;
10244;SDS011;5167;52.164;10.530;2024-03-23T10:51:54;10.35;;;4.05;;
10244;SDS011;5167;52.164;10.530;2024-03-23T10:54:21;14.70;;;4.07;;
10244;SDS011;5167;52.164;10.530;2024-03-23T10:56:49;8.23;;;3.00;;
10244;SDS011;5167;52.164;10.530;2024-03-23T10:59:18;11.77;;;3.83;;
10244;SDS011;5167;52.164;10.530;2024-03-23T11:01:54;11.55;;;4.95;;
10244;SDS011;5167;52.164;10.530;2024-03-23T11:04:29;6.72;;;3.35;;
10244;SDS011;5167;52.164;10.530;2024-03-23T11:06:55;11.05;;;3.47;;
10244;SDS011;5167;52.164;10.530;2024-03-23T11:09:39;8.38;;;2.65;;
10244;SDS011;5167;52.164;10.530;2024-03-23T11:17:35;7.25;;;3.60;;
10244;SDS011;5167;52.164;10.530;2024-03-23T11:20:02;11.90;;;4.80;;
10244;SDS011;5167;52.164;10.530;2024-03-23T11:25:21;7.40;;;3.28;;
10244;SDS011;5167;52.164;10.530;2024-03-23T11:27:50;7.63;;;3.38;;
10244;SDS011;5167;52.164;10.530;2024-03-23T11:32:50;8.18;;;3.03;;
10244;SDS011;5167;52.164;10.530;2024-03-23T11:40:38;7.88;;;3.35;;
10244;SDS011;5167;52.164;10.530;2024-03-23T11:43:06;10.20;;;3.17;;
10244;SDS011;5167;52.164;10.530;2024-03-23T11:45:43;8.40;;;3.67;;
10244;SDS011;5167;52.164;10.530;2024-03-23T11:48:16;10.15;;;3.75;;
10244;SDS011;5167;52.164;10.530;2024-03-23T11:50:44;4.90;;;2.03;;
10244;SDS011;5167;52.164;10.530;2024-03-23T11:55:52;2.97;;;0.98;;
10244;SDS011;5167;52.164;10.530;2024-03-23T11:58:19;4.82;;;2.20;;
10244;SDS011;5167;52.164;10.530;2024-03-23T12:00:52;4.35;;;1.48;;
10244;SDS011;5167;52.164;10.530;2024-03-23T12:03:18;2.60;;;1.45;;
10244;SDS011;5167;52.164;10.530;2024-03-23T12:05:47;2.35;;;1.35;;
10244;SDS011;5167;52.164;10.530;2024-03-23T12:08:16;4.78;;;1.90;;
10244;SDS011;5167;52.164;10.530;2024-03-23T12:10:46;4.18;;;2.70;;
10244;SDS011;5167;52.164;10.530;2024-03-23T12:13:17;3.97;;;2.22;;
10244;SDS011;5167;52.164;10.530;2024-03-23T12:15:46;3.28;;;2.25;;
10244;SDS011;5167;52.164;10.530;2024-03-23T12:18:14;4.40;;;2.17;;
10244;SDS011;5167;52.164;10.530;2024-03-23T12:20:39;5.72;;;2.13;;
10244;SDS011;5167;52.164;10.530;2024-03-23T12:23:08;6.47;;;2.20;;
10244;SDS011;5167;52.164;10.530;2024-03-23T12:25:38;3.28;;;1.95;;
10244;SDS011;5167;52.164;10.530;2024-03-23T12:28:04;3.90;;;2.00;;
10244;SDS011;5167;52.164;10.530;2024-03-23T12:30:33;2.20;;;1.50;;
10244;SDS011;5167;52.164;10.530;2024-03-23T12:33:05;3.13;;;1.40;;
10244;SDS011;5167;52.164;10.530;2024-03-23T12:35:31;3.87;;;1.87;;
10244;SDS011;5167;52.164;10.530;2024-03-23T12:37:57;2.80;;;1.43;;
10244;SDS011;5167;52.164;10.530;2024-03-23T12:40:22;4.10;;;1.70;;
10244;SDS011;5167;52.164;10.530;2024-03-23T12:42:48;2.70;;;1.40;;
10244;SDS011;5167;52.164;10.530;2024-03-23T12:45:14;2.43;;;1.67;;
10244;SDS011;5167;52.164;10.530;2024-03-23T12:47:39;2.90;;;1.60;;
10244;SDS011;5167;52.164;10.530;2024-03-23T12:50:05;3.47;;;2.00;;
10244;SDS011;5167;52.164;10.530;2024-03-23T12:52:32;5.13;;;2.00;;
10244;SDS011;5167;52.164;10.530;2024-03-23T12:54:58;5.13;;;2.40;;
10244;SDS011;5167;52.164;10.530;2024-03-23T12:57:24;4.57;;;1.80;;
10244;SDS011;5167;52.164;10.530;2024-03-23T12:59:50;5.03;;;2.13;;
10244;SDS011;5167;52.164;10.530;2024-03-23T13:02:21;4.65;;;2.30;;
10244;SDS011;5167;52.164;10.530;2024-03-23T13:04:50;2.87;;;1.70;;
10244;SDS011;5167;52.164;10.530;2024-03-23T13:07:17;4.87;;;2.17;;
10244;SDS011;5167;52.164;10.530;2024-03-23T13:09:44;5.87;;;2.30;;
10244;SDS011;5167;52.164;10.530;2024-03-23T13:12:10;7.30;;;2.77;;
10244;SDS011;5167;52.164;10.530;2024-03-23T13:14:37;5.93;;;2.20;;
10244;SDS011;5167;52.164;10.530;2024-03-23T13:17:03;2.33;;;1.93;;
10244;SDS011;5167;52.164;10.530;2024-03-23T13:19:29;2.57;;;2.37;;
10244;SDS011;5167;52.164;10.530;2024-03-23T13:21:59;2.70;;;1.80;;
10244;SDS011;5167;52.164;10.530;2024-03-23T13:24:25;3.00;;;2.10;;
10244;SDS011;5167;52.164;10.530;2024-03-23T13:26:52;2.30;;;2.10;;
10244;SDS011;5167;52.164;10.530;2024-03-23T13:29:18;3.47;;;2.20;;
10244;SDS011;5167;52.164;10.530;2024-03-23T13:31:44;4.37;;;2.30;;
10244;SDS011;5167;52.164;10.530;2024-03-23T13:34:10;2.80;;;2.17;;
10244;SDS011;5167;52.164;10.530;2024-03-23T13:36:36;5.10;;;2.73;;
10244;SDS011;5167;52.164;10.530;2024-03-23T13:39:02;6.57;;;4.40;;
10244;SDS011;5167;52.164;10.530;2024-03-23T13:41:31;6.17;;;2.63;;
10244;SDS011;5167;52.164;10.530;2024-03-23T13:43:57;4.83;;;3.23;;
10244;SDS011;5167;52.164;10.530;2024-03-23T13:46:22;8.47;;;3.00;;
10244;SDS011;5167;52.164;10.530;2024-03-23T13:48:47;3.53;;;1.80;;
10244;SDS011;5167;52.164;10.530;2024-03-23T13:51:13;1.53;;;1.30;;
10244;SDS011;5167;52.164;10.530;2024-03-23T13:53:38;2.07;;;1.80;;
10244;SDS011;5167;52.164;10.530;2024-03-23T13:56:04;1.70;;;1.30;;
10244;SDS011;5167;52.164;10.530;2024-03-23T13:58:29;2.27;;;1.93;;
10244;SDS011;5167;52.164;10.530;2024-03-23T14:00:56;2.90;;;2.10;;
10244;SDS011;5167;52.164;10.530;2024-03-23T14:03:23;2.50;;;1.67;;
10244;SDS011;5167;52.164;10.530;2024-03-23T14:05:48;6.40;;;2.43;;
10244;SDS011;5167;52.164;10.530;2024-03-23T14:08:14;21.50;;;8.37;;
10244;SDS011;5167;52.164;10.530;2024-03-23T14:10:40;9.93;;;4.00;;
10244;SDS011;5167;52.164;10.530;2024-03-23T14:13:06;9.00;;;4.07;;
10244;SDS011;5167;52.164;10.530;2024-03-23T14:15:31;8.60;;;3.70;;
10244;SDS011;5167;52.164;10.530;2024-03-23T14:17:57;8.90;;;3.77;;
10244;SDS011;5167;52.164;10.530;2024-03-23T14:20:23;6.47;;;2.80;;
10244;SDS011;5167;52.164;10.530;2024-03-23T14:22:49;3.57;;;2.30;;
10244;SDS011;5167;52.164;10.530;2024-03-23T14:25:14;3.07;;;2.40;;
10244;SDS011;5167;52.164;10.530;2024-03-23T14:27:40;3.00;;;2.70;;
10244;SDS011;5167;52.164;10.530;2024-03-23T14:30:06;2.70;;;1.70;;
10244;SDS011;5167;52.164;10.530;2024-03-23T14:32:32;2.90;;;1.70;;
10244;SDS011;5167;52.164;10.530;2024-03-23T14:35:05;2.97;;;1.80;;
10244;SDS011;5167;52.164;10.530;2024-03-23T14:37:36;3.70;;;1.50;;
10244;SDS011;5167;52.164;10.530;2024-03-23T14:40:02;3.77;;;1.77;;
10244;SDS011;5167;52.164;10.530;2024-03-23T14:42:29;16.27;;;7.83;;
10244;SDS011;5167;52.164;10.530;2024-03-23T14:44:55;3.53;;;2.00;;
10244;SDS011;5167;52.164;10.530;2024-03-23T14:47:20;1.80;;;1.70;;
10244;SDS011;5167;52.164;10.530;2024-03-23T14:49:46;1.53;;;1.43;;
10244;SDS011;5167;52.164;10.530;2024-03-23T14:52:18;1.60;;;1.40;;
10244;SDS011;5167;52.164;10.530;2024-03-23T14:54:44;7.60;;;1.90;;
10244;SDS011;5167;52.164;10.530;2024-03-23T14:57:10;3.20;;;1.90;;
10244;SDS011;5167;52.164;10.530;2024-03-23T14:59:36;8.87;;;3.00;;
10244;SDS011;5167;52.164;10.530;2024-03-23T15:02:08;2.70;;;1.90;;
10244;SDS011;5167;52.164;10.530;2024-03-23T15:04:34;2.33;;;1.70;;
10244;SDS011;5167;52.164;10.530;2024-03-23T15:07:00;4.23;;;2.37;;
10244;SDS011;5167;52.164;10.530;2024-03-23T15:09:25;2.70;;;2.10;;
10244;SDS011;5167;52.164;10.530;2024-03-23T15:11:51;5.20;;;1.93;;
10244;SDS011;5167;52.164;10.530;2024-03-23T15:14:16;3.77;;;2.30;;
10244;SDS011;5167;52.164;10.530;2024-03-23T15:16:42;5.30;;;2.47;;
10244;SDS011;5167;52.164;10.530;2024-03-23T15:19:08;6.53;;;3.20;;
10244;SDS011;5167;52.164;10.530;2024-03-23T15:21:33;4.10;;;2.10;;
10244;SDS011;5167;52.164;10.530;2024-03-23T15:23:59;5.77;;;2.80;;
10244;SDS011;5167;52.164;10.530;2024-03-23T15:26:24;4.00;;;1.80;;
10244;SDS011;5167;52.164;10.530;2024-03-23T15:28:50;2.00;;;1.80;;
10244;SDS011;5167;52.164;10.530;2024-03-23T15:31:21;3.67;;;2.07;;
10244;SDS011;5167;52.164;10.530;2024-03-23T15:33:47;4.70;;;2.20;;
10244;SDS011;5167;52.164;10.530;2024-03-23T15:36:13;5.63;;;2.70;;
10244;SDS011;5167;52.164;10.530;2024-03-23T15:38:38;2.83;;;2.23;;
10244;SDS011;5167;52.164;10.530;2024-03-23T15:41:04;4.03;;;2.50;;
10244;SDS011;5167;52.164;10.530;2024-03-23T15:43:29;1.97;;;1.80;;
10244;SDS011;5167;52.164;10.530;2024-03-23T15:46:00;2.60;;;1.70;;
10244;SDS011;5167;52.164;10.530;2024-03-23T15:48:26;2.63;;;1.40;;
10244;SDS011;5167;52.164;10.530;2024-03-23T15:50:53;2.60;;;1.50;;
10244;SDS011;5167;52.164;10.530;2024-03-23T15:53:20;1.40;;;1.30;;
10244;SDS011;5167;52.164;10.530;2024-03-23T15:55:52;1.53;;;1.43;;
10244;SDS011;5167;52.164;10.530;2024-03-23T15:58:18;1.57;;;1.43;;